sensor_id;sensor_type;location;lat;lon;timestamp;temperature;humidity
7163;DHT22;3623;47.098;15.446;2023-07-30T00:01:57;17.30;99.90
7163;DHT22;3623;47.098;15.446;2023-07-30T00:04:25;17.40;99.90
7163;DHT22;3623;47.098;15.446;2023-07-30T00:06:53;17.40;99.90
7163;DHT22;3623;47.098;15.446;2023-07-30T00:09:20;17.80;99.90
7163;DHT22;3623;47.098;15.446;2023-07-30T00:11:48;17.40;99.90
7163;DHT22;3623;47.098;15.446;2023-07-30T00:14:15;17.60;99.90
7163;DHT22;3623;47.098;15.446;2023-07-30T00:16:42;17.60;99.90
7163;DHT22;3623;47.098;15.446;2023-07-30T00:19:09;17.60;99.90
7163;DHT22;3623;47.098;15.446;2023-07-30T00:21:37;17.50;99.90
7163;DHT22;3623;47.098;15.446;2023-07-30T00:24:06;17.50;99.90
7163;DHT22;3623;47.098;15.446;2023-07-30T00:26:33;17.40;99.90
7163;DHT22;3623;47.098;15.446;2023-07-30T00:29:00;17.60;99.90
7163;DHT22;3623;47.098;15.446;2023-07-30T00:31:27;17.60;99.90
7163;DHT22;3623;47.098;15.446;2023-07-30T00:33:54;17.40;99.90
7163;DHT22;3623;47.098;15.446;2023-07-30T00:36:21;17.30;99.90
7163;DHT22;3623;47.098;15.446;2023-07-30T00:38:48;17.30;99.90
7163;DHT22;3623;47.098;15.446;2023-07-30T00:41:17;17.30;99.90
7163;DHT22;3623;47.098;15.446;2023-07-30T00:43:44;17.30;99.90
7163;DHT22;3623;47.098;15.446;2023-07-30T00:46:12;17.50;99.90
7163;DHT22;3623;47.098;15.446;2023-07-30T00:48:39;17.30;99.90
7163;DHT22;3623;47.098;15.446;2023-07-30T00:51:07;17.20;99.90
7163;DHT22;3623;47.098;15.446;2023-07-30T00:53:36;17.30;99.90
7163;DHT22;3623;47.098;15.446;2023-07-30T00:56:03;17.50;99.90
7163;DHT22;3623;47.098;15.446;2023-07-30T00:58:33;17.30;99.90
7163;DHT22;3623;47.098;15.446;2023-07-30T01:01:00;17.30;99.90
7163;DHT22;3623;47.098;15.446;2023-07-30T01:03:28;17.30;99.90
7163;DHT22;3623;47.098;15.446;2023-07-30T01:05:55;17.30;99.90
7163;DHT22;3623;47.098;15.446;2023-07-30T01:08:23;17.30;99.90
7163;DHT22;3623;47.098;15.446;2023-07-30T01:10:50;17.30;99.90
7163;DHT22;3623;47.098;15.446;2023-07-30T01:13:18;17.20;99.90
7163;DHT22;3623;47.098;15.446;2023-07-30T01:15:47;17.50;99.90
7163;DHT22;3623;47.098;15.446;2023-07-30T01:18:14;17.20;99.90
7163;DHT22;3623;47.098;15.446;2023-07-30T01:20:41;17.20;99.90
7163;DHT22;3623;47.098;15.446;2023-07-30T01:23:10;17.40;99.90
7163;DHT22;3623;47.098;15.446;2023-07-30T01:25:37;17.20;99.90
7163;DHT22;3623;47.098;15.446;2023-07-30T01:28:07;17.20;99.90
7163;DHT22;3623;47.098;15.446;2023-07-30T01:30:40;17.30;99.90
7163;DHT22;3623;47.098;15.446;2023-07-30T01:33:08;17.20;99.90
7163;DHT22;3623;47.098;15.446;2023-07-30T01:35:37;17.20;99.90
7163;DHT22;3623;47.098;15.446;2023-07-30T01:38:06;17.40;99.90
7163;DHT22;3623;47.098;15.446;2023-07-30T01:40:35;17.10;99.90
7163;DHT22;3623;47.098;15.446;2023-07-30T01:43:02;17.10;99.90
7163;DHT22;3623;47.098;15.446;2023-07-30T01:45:30;17.20;99.90
7163;DHT22;3623;47.098;15.446;2023-07-30T01:47:57;17.10;99.90
7163;DHT22;3623;47.098;15.446;2023-07-30T01:50:24;17.10;99.90
7163;DHT22;3623;47.098;15.446;2023-07-30T01:52:51;17.00;99.90
7163;DHT22;3623;47.098;15.446;2023-07-30T01:55:18;17.00;99.90
7163;DHT22;3623;47.098;15.446;2023-07-30T01:57:47;17.20;99.90
7163;DHT22;3623;47.098;15.446;2023-07-30T02:00:15;17.00;99.90
7163;DHT22;3623;47.098;15.446;2023-07-30T02:02:42;17.10;99.90
7163;DHT22;3623;47.098;15.446;2023-07-30T02:05:09;17.00;99.90
7163;DHT22;3623;47.098;15.446;2023-07-30T02:07:36;17.00;99.90
7163;DHT22;3623;47.098;15.446;2023-07-30T02:10:04;17.00;99.90
7163;DHT22;3623;47.098;15.446;2023-07-30T02:12:31;17.00;99.90
7163;DHT22;3623;47.098;15.446;2023-07-30T02:15:00;17.10;99.90
7163;DHT22;3623;47.098;15.446;2023-07-30T02:17:27;17.00;99.90
7163;DHT22;3623;47.098;15.446;2023-07-30T02:19:54;17.00;99.90
7163;DHT22;3623;47.098;15.446;2023-07-30T02:22:21;17.00;99.90
7163;DHT22;3623;47.098;15.446;2023-07-30T02:24:48;16.90;99.90
7163;DHT22;3623;47.098;15.446;2023-07-30T02:27:16;16.90;99.90
7163;DHT22;3623;47.098;15.446;2023-07-30T02:29:43;17.10;99.90
7163;DHT22;3623;47.098;15.446;2023-07-30T02:32:11;17.00;99.90
7163;DHT22;3623;47.098;15.446;2023-07-30T02:34:38;17.00;99.90
7163;DHT22;3623;47.098;15.446;2023-07-30T02:37:06;17.00;99.90
7163;DHT22;3623;47.098;15.446;2023-07-30T02:39:33;17.00;99.90
7163;DHT22;3623;47.098;15.446;2023-07-30T02:42:00;17.00;99.90
7163;DHT22;3623;47.098;15.446;2023-07-30T02:44:27;17.00;99.90
7163;DHT22;3623;47.098;15.446;2023-07-30T02:46:54;16.90;99.90
7163;DHT22;3623;47.098;15.446;2023-07-30T02:49:23;16.90;99.90
7163;DHT22;3623;47.098;15.446;2023-07-30T02:51:50;16.90;99.90
7163;DHT22;3623;47.098;15.446;2023-07-30T02:54:17;16.90;99.90
7163;DHT22;3623;47.098;15.446;2023-07-30T02:56:46;17.00;99.90
7163;DHT22;3623;47.098;15.446;2023-07-30T02:59:13;16.90;99.90
7163;DHT22;3623;47.098;15.446;2023-07-30T03:01:40;16.90;99.90
7163;DHT22;3623;47.098;15.446;2023-07-30T03:04:07;16.90;99.90
7163;DHT22;3623;47.098;15.446;2023-07-30T03:06:36;17.00;99.90
7163;DHT22;3623;47.098;15.446;2023-07-30T03:09:03;17.00;99.90
7163;DHT22;3623;47.098;15.446;2023-07-30T03:11:30;16.90;99.90
7163;DHT22;3623;47.098;15.446;2023-07-30T03:13:57;16.90;99.90
7163;DHT22;3623;47.098;15.446;2023-07-30T03:16:25;16.90;99.90
7163;DHT22;3623;47.098;15.446;2023-07-30T03:18:52;17.00;99.90
7163;DHT22;3623;47.098;15.446;2023-07-30T03:21:19;16.90;99.90
7163;DHT22;3623;47.098;15.446;2023-07-30T03:23:47;17.00;99.90
7163;DHT22;3623;47.098;15.446;2023-07-30T03:26:15;16.90;99.90
7163;DHT22;3623;47.098;15.446;2023-07-30T03:28:42;17.10;99.90
7163;DHT22;3623;47.098;15.446;2023-07-30T03:31:09;16.90;99.90
7163;DHT22;3623;47.098;15.446;2023-07-30T03:33:37;16.90;99.90
7163;DHT22;3623;47.098;15.446;2023-07-30T03:36:05;17.10;99.90
7163;DHT22;3623;47.098;15.446;2023-07-30T03:38:32;16.40;99.90
7163;DHT22;3623;47.098;15.446;2023-07-30T03:41:00;16.80;99.90
7163;DHT22;3623;47.098;15.446;2023-07-30T03:43:27;16.80;99.90
7163;DHT22;3623;47.098;15.446;2023-07-30T03:45:55;16.80;99.90
7163;DHT22;3623;47.098;15.446;2023-07-30T03:48:22;16.90;99.90
7163;DHT22;3623;47.098;15.446;2023-07-30T03:50:49;16.80;99.90
7163;DHT22;3623;47.098;15.446;2023-07-30T03:53:16;16.80;99.90
7163;DHT22;3623;47.098;15.446;2023-07-30T03:55:43;16.80;99.90
7163;DHT22;3623;47.098;15.446;2023-07-30T03:58:12;16.80;99.90
7163;DHT22;3623;47.098;15.446;2023-07-30T04:00:40;16.80;99.90
7163;DHT22;3623;47.098;15.446;2023-07-30T04:03:07;16.80;99.90
7163;DHT22;3623;47.098;15.446;2023-07-30T04:05:34;16.80;99.90
7163;DHT22;3623;47.098;15.446;2023-07-30T04:08:02;16.90;99.90
7163;DHT22;3623;47.098;15.446;2023-07-30T04:10:29;16.80;99.90
7163;DHT22;3623;47.098;15.446;2023-07-30T04:12:56;16.80;99.90
7163;DHT22;3623;47.098;15.446;2023-07-30T04:15:25;16.80;99.90
7163;DHT22;3623;47.098;15.446;2023-07-30T04:17:52;16.80;99.90
7163;DHT22;3623;47.098;15.446;2023-07-30T04:20:19;16.80;99.90
7163;DHT22;3623;47.098;15.446;2023-07-30T04:22:46;16.80;99.90
7163;DHT22;3623;47.098;15.446;2023-07-30T04:25:13;16.90;99.90
7163;DHT22;3623;47.098;15.446;2023-07-30T04:27:40;16.70;99.90
7163;DHT22;3623;47.098;15.446;2023-07-30T04:30:08;16.70;99.90
7163;DHT22;3623;47.098;15.446;2023-07-30T04:32:37;16.70;99.90
7163;DHT22;3623;47.098;15.446;2023-07-30T04:35:04;16.70;99.90
7163;DHT22;3623;47.098;15.446;2023-07-30T04:37:31;16.70;99.90
7163;DHT22;3623;47.098;15.446;2023-07-30T04:39:59;16.70;99.90
7163;DHT22;3623;47.098;15.446;2023-07-30T04:42:26;16.70;99.90
7163;DHT22;3623;47.098;15.446;2023-07-30T04:44:53;16.70;99.90
7163;DHT22;3623;47.098;15.446;2023-07-30T04:47:20;16.80;99.90
7163;DHT22;3623;47.098;15.446;2023-07-30T04:49:49;16.70;99.90
7163;DHT22;3623;47.098;15.446;2023-07-30T04:52:16;16.90;99.90
7163;DHT22;3623;47.098;15.446;2023-07-30T04:54:43;16.70;99.90
7163;DHT22;3623;47.098;15.446;2023-07-30T04:57:11;16.70;99.90
7163;DHT22;3623;47.098;15.446;2023-07-30T04:59:38;16.80;99.90
7163;DHT22;3623;47.098;15.446;2023-07-30T05:02:06;16.70;99.90
7163;DHT22;3623;47.098;15.446;2023-07-30T05:04:33;16.80;99.90
7163;DHT22;3623;47.098;15.446;2023-07-30T05:07:02;17.00;99.90
7163;DHT22;3623;47.098;15.446;2023-07-30T05:09:29;16.80;99.90
7163;DHT22;3623;47.098;15.446;2023-07-30T05:11:56;16.80;99.90
7163;DHT22;3623;47.098;15.446;2023-07-30T05:14:23;16.80;99.90
7163;DHT22;3623;47.098;15.446;2023-07-30T05:16:51;16.80;99.90
7163;DHT22;3623;47.098;15.446;2023-07-30T05:19:18;16.80;99.90
7163;DHT22;3623;47.098;15.446;2023-07-30T05:21:45;16.80;99.90
7163;DHT22;3623;47.098;15.446;2023-07-30T05:24:14;16.80;99.90
7163;DHT22;3623;47.098;15.446;2023-07-30T05:26:41;16.80;99.90
7163;DHT22;3623;47.098;15.446;2023-07-30T05:29:08;17.00;99.90
7163;DHT22;3623;47.098;15.446;2023-07-30T05:31:35;16.80;99.90
7163;DHT22;3623;47.098;15.446;2023-07-30T05:34:03;16.90;99.90
7163;DHT22;3623;47.098;15.446;2023-07-30T05:36:30;16.90;99.90
7163;DHT22;3623;47.098;15.446;2023-07-30T05:38:58;16.80;99.90
7163;DHT22;3623;47.098;15.446;2023-07-30T05:41:26;16.90;99.90
7163;DHT22;3623;47.098;15.446;2023-07-30T05:43:53;16.80;99.90
7163;DHT22;3623;47.098;15.446;2023-07-30T05:46:20;16.90;99.90
7163;DHT22;3623;47.098;15.446;2023-07-30T05:48:48;16.90;99.90
7163;DHT22;3623;47.098;15.446;2023-07-30T05:51:15;17.10;99.90
7163;DHT22;3623;47.098;15.446;2023-07-30T05:53:42;17.00;99.90
7163;DHT22;3623;47.098;15.446;2023-07-30T05:56:09;17.00;99.90
7163;DHT22;3623;47.098;15.446;2023-07-30T05:58:40;17.00;99.90
7163;DHT22;3623;47.098;15.446;2023-07-30T06:01:07;17.20;99.90
7163;DHT22;3623;47.098;15.446;2023-07-30T06:03:35;17.30;99.90
7163;DHT22;3623;47.098;15.446;2023-07-30T06:06:02;17.10;99.90
7163;DHT22;3623;47.098;15.446;2023-07-30T06:08:31;17.10;99.90
7163;DHT22;3623;47.098;15.446;2023-07-30T06:11:00;17.20;99.90
7163;DHT22;3623;47.098;15.446;2023-07-30T06:13:28;17.20;99.90
7163;DHT22;3623;47.098;15.446;2023-07-30T06:15:57;17.20;99.90
7163;DHT22;3623;47.098;15.446;2023-07-30T06:18:24;17.20;99.90
7163;DHT22;3623;47.098;15.446;2023-07-30T06:20:51;17.20;99.90
7163;DHT22;3623;47.098;15.446;2023-07-30T06:23:18;17.30;99.90
7163;DHT22;3623;47.098;15.446;2023-07-30T06:25:45;17.30;99.90
7163;DHT22;3623;47.098;15.446;2023-07-30T06:28:13;17.20;99.90
7163;DHT22;3623;47.098;15.446;2023-07-30T06:30:40;17.30;99.90
7163;DHT22;3623;47.098;15.446;2023-07-30T06:33:09;17.20;99.90
7163;DHT22;3623;47.098;15.446;2023-07-30T06:35:36;17.40;99.90
7163;DHT22;3623;47.098;15.446;2023-07-30T06:38:05;17.30;99.90
7163;DHT22;3623;47.098;15.446;2023-07-30T06:40:32;17.30;99.90
7163;DHT22;3623;47.098;15.446;2023-07-30T06:43:00;17.30;99.90
7163;DHT22;3623;47.098;15.446;2023-07-30T06:45:27;17.50;99.90
7163;DHT22;3623;47.098;15.446;2023-07-30T06:47:55;17.30;99.90
7163;DHT22;3623;47.098;15.446;2023-07-30T06:50:23;17.40;99.90
7163;DHT22;3623;47.098;15.446;2023-07-30T06:52:50;17.40;99.90
7163;DHT22;3623;47.098;15.446;2023-07-30T06:55:17;17.40;99.90
7163;DHT22;3623;47.098;15.446;2023-07-30T06:57:45;17.50;99.90
7163;DHT22;3623;47.098;15.446;2023-07-30T07:00:13;17.50;99.90
7163;DHT22;3623;47.098;15.446;2023-07-30T07:02:44;17.70;99.90
7163;DHT22;3623;47.098;15.446;2023-07-30T07:05:12;17.70;99.90
7163;DHT22;3623;47.098;15.446;2023-07-30T07:07:40;17.80;99.90
7163;DHT22;3623;47.098;15.446;2023-07-30T07:10:08;18.10;99.90
7163;DHT22;3623;47.098;15.446;2023-07-30T07:12:36;17.90;99.90
7163;DHT22;3623;47.098;15.446;2023-07-30T07:15:04;18.10;99.90
7163;DHT22;3623;47.098;15.446;2023-07-30T07:17:32;18.70;99.90
7163;DHT22;3623;47.098;15.446;2023-07-30T07:19:59;18.80;99.90
7163;DHT22;3623;47.098;15.446;2023-07-30T07:22:29;19.20;99.90
7163;DHT22;3623;47.098;15.446;2023-07-30T07:24:58;19.70;99.90
7163;DHT22;3623;47.098;15.446;2023-07-30T07:27:25;19.60;99.90
7163;DHT22;3623;47.098;15.446;2023-07-30T07:29:52;19.70;99.90
7163;DHT22;3623;47.098;15.446;2023-07-30T07:32:19;19.60;99.90
7163;DHT22;3623;47.098;15.446;2023-07-30T07:34:46;19.70;99.90
7163;DHT22;3623;47.098;15.446;2023-07-30T07:37:14;19.80;99.90
7163;DHT22;3623;47.098;15.446;2023-07-30T07:39:42;19.90;99.90
7163;DHT22;3623;47.098;15.446;2023-07-30T07:42:11;20.20;99.90
7163;DHT22;3623;47.098;15.446;2023-07-30T07:44:38;20.10;99.90
7163;DHT22;3623;47.098;15.446;2023-07-30T07:47:05;20.20;99.90
7163;DHT22;3623;47.098;15.446;2023-07-30T07:49:32;20.50;99.90
7163;DHT22;3623;47.098;15.446;2023-07-30T07:51:59;20.70;99.90
7163;DHT22;3623;47.098;15.446;2023-07-30T07:54:27;20.60;99.90
7163;DHT22;3623;47.098;15.446;2023-07-30T07:56:54;20.70;99.90
7163;DHT22;3623;47.098;15.446;2023-07-30T07:59:23;21.00;99.90
7163;DHT22;3623;47.098;15.446;2023-07-30T08:01:50;20.90;99.90
7163;DHT22;3623;47.098;15.446;2023-07-30T08:04:17;21.00;99.90
7163;DHT22;3623;47.098;15.446;2023-07-30T08:06:46;21.20;99.90
7163;DHT22;3623;47.098;15.446;2023-07-30T08:09:14;21.20;99.90
7163;DHT22;3623;47.098;15.446;2023-07-30T08:11:41;21.40;99.90
7163;DHT22;3623;47.098;15.446;2023-07-30T08:14:08;21.50;99.90
7163;DHT22;3623;47.098;15.446;2023-07-30T08:16:36;21.60;99.90
7163;DHT22;3623;47.098;15.446;2023-07-30T08:19:04;21.40;99.90
7163;DHT22;3623;47.098;15.446;2023-07-30T08:21:31;21.30;99.90
7163;DHT22;3623;47.098;15.446;2023-07-30T08:23:58;21.10;99.90
7163;DHT22;3623;47.098;15.446;2023-07-30T08:26:25;21.30;99.90
7163;DHT22;3623;47.098;15.446;2023-07-30T08:28:52;21.30;99.90
7163;DHT22;3623;47.098;15.446;2023-07-30T08:31:19;21.20;99.90
7163;DHT22;3623;47.098;15.446;2023-07-30T08:33:48;21.20;99.90
7163;DHT22;3623;47.098;15.446;2023-07-30T08:36:15;21.50;99.90
7163;DHT22;3623;47.098;15.446;2023-07-30T08:38:42;21.20;99.90
7163;DHT22;3623;47.098;15.446;2023-07-30T08:41:09;21.20;99.90
7163;DHT22;3623;47.098;15.446;2023-07-30T08:43:37;21.20;99.90
7163;DHT22;3623;47.098;15.446;2023-07-30T08:46:04;21.50;99.90
7163;DHT22;3623;47.098;15.446;2023-07-30T08:48:31;21.50;99.90
7163;DHT22;3623;47.098;15.446;2023-07-30T08:51:01;21.70;99.90
7163;DHT22;3623;47.098;15.446;2023-07-30T08:53:29;21.50;99.90
7163;DHT22;3623;47.098;15.446;2023-07-30T08:55:57;21.40;99.90
7163;DHT22;3623;47.098;15.446;2023-07-30T08:58:25;21.40;99.90
7163;DHT22;3623;47.098;15.446;2023-07-30T09:00:55;21.50;99.90
7163;DHT22;3623;47.098;15.446;2023-07-30T09:03:23;21.60;99.90
7163;DHT22;3623;47.098;15.446;2023-07-30T09:05:51;21.60;99.90
7163;DHT22;3623;47.098;15.446;2023-07-30T09:08:20;21.70;99.90
7163;DHT22;3623;47.098;15.446;2023-07-30T09:10:48;21.90;99.90
7163;DHT22;3623;47.098;15.446;2023-07-30T09:13:21;22.00;99.90
7163;DHT22;3623;47.098;15.446;2023-07-30T09:15:49;21.90;99.90
7163;DHT22;3623;47.098;15.446;2023-07-30T09:18:17;22.10;99.90
7163;DHT22;3623;47.098;15.446;2023-07-30T09:20:44;22.00;99.90
7163;DHT22;3623;47.098;15.446;2023-07-30T09:23:12;22.20;99.90
7163;DHT22;3623;47.098;15.446;2023-07-30T09:25:40;22.20;99.90
7163;DHT22;3623;47.098;15.446;2023-07-30T09:28:08;22.40;99.90
7163;DHT22;3623;47.098;15.446;2023-07-30T09:30:35;22.30;99.90
7163;DHT22;3623;47.098;15.446;2023-07-30T09:33:02;22.50;99.90
7163;DHT22;3623;47.098;15.446;2023-07-30T09:35:33;22.50;99.90
7163;DHT22;3623;47.098;15.446;2023-07-30T09:38:02;22.60;99.90
7163;DHT22;3623;47.098;15.446;2023-07-30T09:40:33;22.80;99.90
7163;DHT22;3623;47.098;15.446;2023-07-30T09:43:02;22.70;99.90
7163;DHT22;3623;47.098;15.446;2023-07-30T09:45:33;22.70;99.90
7163;DHT22;3623;47.098;15.446;2023-07-30T09:48:02;22.70;99.90
7163;DHT22;3623;47.098;15.446;2023-07-30T09:50:30;22.50;99.90
7163;DHT22;3623;47.098;15.446;2023-07-30T09:52:58;22.60;99.90
7163;DHT22;3623;47.098;15.446;2023-07-30T09:55:27;22.70;99.90
7163;DHT22;3623;47.098;15.446;2023-07-30T09:57:55;22.70;99.90
7163;DHT22;3623;47.098;15.446;2023-07-30T10:00:23;22.80;99.90
7163;DHT22;3623;47.098;15.446;2023-07-30T10:02:53;22.80;99.90
7163;DHT22;3623;47.098;15.446;2023-07-30T10:05:25;22.90;99.90
7163;DHT22;3623;47.098;15.446;2023-07-30T10:07:59;23.20;99.90
7163;DHT22;3623;47.098;15.446;2023-07-30T10:10:28;23.30;99.90
7163;DHT22;3623;47.098;15.446;2023-07-30T10:12:59;23.50;99.90
7163;DHT22;3623;47.098;15.446;2023-07-30T10:15:28;23.80;99.90
7163;DHT22;3623;47.098;15.446;2023-07-30T10:17:57;24.30;99.90
7163;DHT22;3623;47.098;15.446;2023-07-30T10:20:26;24.50;99.90
7163;DHT22;3623;47.098;15.446;2023-07-30T10:22:56;24.40;99.90
7163;DHT22;3623;47.098;15.446;2023-07-30T10:25:28;23.80;99.90
7163;DHT22;3623;47.098;15.446;2023-07-30T10:27:56;23.90;99.90
7163;DHT22;3623;47.098;15.446;2023-07-30T10:30:32;24.80;99.90
7163;DHT22;3623;47.098;15.446;2023-07-30T10:33:01;26.10;99.90
7163;DHT22;3623;47.098;15.446;2023-07-30T10:35:36;26.30;99.90
7163;DHT22;3623;47.098;15.446;2023-07-30T10:38:17;25.80;99.90
7163;DHT22;3623;47.098;15.446;2023-07-30T10:41:01;25.70;99.90
7163;DHT22;3623;47.098;15.446;2023-07-30T10:43:29;25.60;99.90
7163;DHT22;3623;47.098;15.446;2023-07-30T10:45:58;25.60;99.90
7163;DHT22;3623;47.098;15.446;2023-07-30T10:48:32;25.40;99.90
7163;DHT22;3623;47.098;15.446;2023-07-30T10:51:01;25.00;99.90
7163;DHT22;3623;47.098;15.446;2023-07-30T10:53:29;24.70;99.90
7163;DHT22;3623;47.098;15.446;2023-07-30T10:55:58;24.50;99.90
7163;DHT22;3623;47.098;15.446;2023-07-30T10:58:28;24.40;99.90
7163;DHT22;3623;47.098;15.446;2023-07-30T11:00:57;24.40;99.90
7163;DHT22;3623;47.098;15.446;2023-07-30T11:03:25;24.20;99.90
7163;DHT22;3623;47.098;15.446;2023-07-30T11:05:54;24.20;99.90
7163;DHT22;3623;47.098;15.446;2023-07-30T11:08:31;25.10;99.90
7163;DHT22;3623;47.098;15.446;2023-07-30T11:10:59;26.50;99.90
7163;DHT22;3623;47.098;15.446;2023-07-30T11:13:26;28.50;99.90
7163;DHT22;3623;47.098;15.446;2023-07-30T11:15:53;29.60;99.90
7163;DHT22;3623;47.098;15.446;2023-07-30T11:18:22;30.60;99.90
7163;DHT22;3623;47.098;15.446;2023-07-30T11:20:49;31.50;99.90
7163;DHT22;3623;47.098;15.446;2023-07-30T11:23:18;31.30;99.90
7163;DHT22;3623;47.098;15.446;2023-07-30T11:25:46;31.80;99.90
7163;DHT22;3623;47.098;15.446;2023-07-30T11:28:25;32.20;99.90
7163;DHT22;3623;47.098;15.446;2023-07-30T11:30:53;32.20;99.90
7163;DHT22;3623;47.098;15.446;2023-07-30T11:33:22;30.60;99.90
7163;DHT22;3623;47.098;15.446;2023-07-30T11:35:50;30.90;99.90
7163;DHT22;3623;47.098;15.446;2023-07-30T11:38:17;31.00;99.90
7163;DHT22;3623;47.098;15.446;2023-07-30T11:40:46;32.10;99.90
7163;DHT22;3623;47.098;15.446;2023-07-30T11:43:14;33.30;99.90
7163;DHT22;3623;47.098;15.446;2023-07-30T11:45:41;33.80;99.90
7163;DHT22;3623;47.098;15.446;2023-07-30T11:48:09;34.50;99.90
7163;DHT22;3623;47.098;15.446;2023-07-30T11:50:56;34.60;99.90
7163;DHT22;3623;47.098;15.446;2023-07-30T11:53:43;34.30;99.90
7163;DHT22;3623;47.098;15.446;2023-07-30T11:56:18;33.20;99.90
7163;DHT22;3623;47.098;15.446;2023-07-30T11:58:46;33.70;99.90
7163;DHT22;3623;47.098;15.446;2023-07-30T12:01:13;34.30;99.90
7163;DHT22;3623;47.098;15.446;2023-07-30T12:03:41;34.80;99.90
7163;DHT22;3623;47.098;15.446;2023-07-30T12:06:11;35.80;99.90
7163;DHT22;3623;47.098;15.446;2023-07-30T12:08:38;35.10;99.90
7163;DHT22;3623;47.098;15.446;2023-07-30T12:11:07;34.80;98.40
7163;DHT22;3623;47.098;15.446;2023-07-30T12:13:42;35.50;99.90
7163;DHT22;3623;47.098;15.446;2023-07-30T12:16:11;35.50;97.10
7163;DHT22;3623;47.098;15.446;2023-07-30T12:18:39;35.00;97.50
7163;DHT22;3623;47.098;15.446;2023-07-30T12:21:06;34.50;96.60
7163;DHT22;3623;47.098;15.446;2023-07-30T12:23:38;35.10;98.80
7163;DHT22;3623;47.098;15.446;2023-07-30T12:26:05;36.20;98.60
7163;DHT22;3623;47.098;15.446;2023-07-30T12:28:33;37.00;96.90
7163;DHT22;3623;47.098;15.446;2023-07-30T12:31:00;36.50;97.80
7163;DHT22;3623;47.098;15.446;2023-07-30T12:33:27;36.80;96.20
7163;DHT22;3623;47.098;15.446;2023-07-30T12:35:53;36.40;95.90
7163;DHT22;3623;47.098;15.446;2023-07-30T12:38:20;37.90;95.90
7163;DHT22;3623;47.098;15.446;2023-07-30T12:40:49;37.90;92.50
7163;DHT22;3623;47.098;15.446;2023-07-30T12:43:17;37.60;93.50
7163;DHT22;3623;47.098;15.446;2023-07-30T12:45:46;38.30;93.90
7163;DHT22;3623;47.098;15.446;2023-07-30T12:48:13;38.80;93.30
7163;DHT22;3623;47.098;15.446;2023-07-30T12:50:40;39.00;93.20
7163;DHT22;3623;47.098;15.446;2023-07-30T12:53:07;38.90;91.30
7163;DHT22;3623;47.098;15.446;2023-07-30T12:55:35;38.00;92.60
7163;DHT22;3623;47.098;15.446;2023-07-30T12:58:04;36.00;94.20
7163;DHT22;3623;47.098;15.446;2023-07-30T13:00:31;36.30;94.90
7163;DHT22;3623;47.098;15.446;2023-07-30T13:02:58;36.30;94.20
7163;DHT22;3623;47.098;15.446;2023-07-30T13:05:25;36.30;94.30
7163;DHT22;3623;47.098;15.446;2023-07-30T13:07:53;36.00;92.40
7163;DHT22;3623;47.098;15.446;2023-07-30T13:10:20;36.50;95.70
7163;DHT22;3623;47.098;15.446;2023-07-30T13:12:47;36.60;92.80
7163;DHT22;3623;47.098;15.446;2023-07-30T13:15:16;36.70;94.90
7163;DHT22;3623;47.098;15.446;2023-07-30T13:17:43;37.10;93.60
7163;DHT22;3623;47.098;15.446;2023-07-30T13:20:11;37.40;94.70
7163;DHT22;3623;47.098;15.446;2023-07-30T13:22:38;37.00;92.00
7163;DHT22;3623;47.098;15.446;2023-07-30T13:25:05;36.30;92.10
7163;DHT22;3623;47.098;15.446;2023-07-30T13:27:33;36.20;93.30
7163;DHT22;3623;47.098;15.446;2023-07-30T13:30:00;36.90;94.10
7163;DHT22;3623;47.098;15.446;2023-07-30T13:32:28;38.20;93.20
7163;DHT22;3623;47.098;15.446;2023-07-30T13:34:55;38.10;91.40
7163;DHT22;3623;47.098;15.446;2023-07-30T13:37:23;38.00;92.00
7163;DHT22;3623;47.098;15.446;2023-07-30T13:39:50;38.00;90.90
7163;DHT22;3623;47.098;15.446;2023-07-30T13:42:17;37.50;91.40
7163;DHT22;3623;47.098;15.446;2023-07-30T13:44:44;37.30;89.90
7163;DHT22;3623;47.098;15.446;2023-07-30T13:47:11;37.40;91.60
7163;DHT22;3623;47.098;15.446;2023-07-30T13:49:40;37.50;92.60
7163;DHT22;3623;47.098;15.446;2023-07-30T13:52:07;38.00;91.50
7163;DHT22;3623;47.098;15.446;2023-07-30T13:54:34;37.70;90.50
7163;DHT22;3623;47.098;15.446;2023-07-30T13:57:03;37.40;92.40
7163;DHT22;3623;47.098;15.446;2023-07-30T13:59:30;37.40;92.70
7163;DHT22;3623;47.098;15.446;2023-07-30T14:01:58;37.80;93.00
7163;DHT22;3623;47.098;15.446;2023-07-30T14:04:25;37.20;91.90
7163;DHT22;3623;47.098;15.446;2023-07-30T14:06:53;37.20;91.20
7163;DHT22;3623;47.098;15.446;2023-07-30T14:09:21;36.30;90.50
7163;DHT22;3623;47.098;15.446;2023-07-30T14:11:50;36.30;91.80
7163;DHT22;3623;47.098;15.446;2023-07-30T14:14:17;36.10;91.80
7163;DHT22;3623;47.098;15.446;2023-07-30T14:16:46;35.80;92.00
7163;DHT22;3623;47.098;15.446;2023-07-30T14:19:13;35.80;93.20
7163;DHT22;3623;47.098;15.446;2023-07-30T14:21:40;35.80;93.80
7163;DHT22;3623;47.098;15.446;2023-07-30T14:24:10;35.20;93.40
7163;DHT22;3623;47.098;15.446;2023-07-30T14:26:37;35.40;95.10
7163;DHT22;3623;47.098;15.446;2023-07-30T14:29:04;35.60;91.80
7163;DHT22;3623;47.098;15.446;2023-07-30T14:31:32;35.20;91.70
7163;DHT22;3623;47.098;15.446;2023-07-30T14:33:59;35.80;92.80
7163;DHT22;3623;47.098;15.446;2023-07-30T14:36:26;35.70;92.10
7163;DHT22;3623;47.098;15.446;2023-07-30T14:38:53;35.10;89.60
7163;DHT22;3623;47.098;15.446;2023-07-30T14:41:22;34.90;91.40
7163;DHT22;3623;47.098;15.446;2023-07-30T14:43:49;34.40;93.30
7163;DHT22;3623;47.098;15.446;2023-07-30T14:46:16;33.70;92.30
7163;DHT22;3623;47.098;15.446;2023-07-30T14:48:43;32.80;93.50
7163;DHT22;3623;47.098;15.446;2023-07-30T14:51:10;31.00;94.20
7163;DHT22;3623;47.098;15.446;2023-07-30T14:53:38;30.10;95.00
7163;DHT22;3623;47.098;15.446;2023-07-30T14:56:05;29.30;96.20
7163;DHT22;3623;47.098;15.446;2023-07-30T14:58:33;28.70;97.50
7163;DHT22;3623;47.098;15.446;2023-07-30T15:01:00;28.20;98.50
7163;DHT22;3623;47.098;15.446;2023-07-30T15:03:28;27.70;98.70
7163;DHT22;3623;47.098;15.446;2023-07-30T15:05:55;27.30;99.90
7163;DHT22;3623;47.098;15.446;2023-07-30T15:08:22;27.10;99.90
7163;DHT22;3623;47.098;15.446;2023-07-30T15:10:49;26.80;99.90
7163;DHT22;3623;47.098;15.446;2023-07-30T15:13:16;26.60;99.90
7163;DHT22;3623;47.098;15.446;2023-07-30T15:15:45;26.40;99.90
7163;DHT22;3623;47.098;15.446;2023-07-30T15:18:13;26.20;99.90
7163;DHT22;3623;47.098;15.446;2023-07-30T15:20:40;26.00;99.90
7163;DHT22;3623;47.098;15.446;2023-07-30T15:23:07;25.90;99.90
7163;DHT22;3623;47.098;15.446;2023-07-30T15:25:37;25.80;99.90
7163;DHT22;3623;47.098;15.446;2023-07-30T15:28:05;25.60;99.90
7163;DHT22;3623;47.098;15.446;2023-07-30T15:30:32;25.60;99.90
7163;DHT22;3623;47.098;15.446;2023-07-30T15:33:01;25.70;99.90
7163;DHT22;3623;47.098;15.446;2023-07-30T15:35:28;25.80;99.90
7163;DHT22;3623;47.098;15.446;2023-07-30T15:37:56;26.20;99.90
7163;DHT22;3623;47.098;15.446;2023-07-30T15:40:24;26.50;99.90
7163;DHT22;3623;47.098;15.446;2023-07-30T15:42:51;26.90;99.90
7163;DHT22;3623;47.098;15.446;2023-07-30T15:45:18;26.90;99.90
7163;DHT22;3623;47.098;15.446;2023-07-30T15:47:45;27.00;99.40
7163;DHT22;3623;47.098;15.446;2023-07-30T15:50:14;26.90;99.90